Time;durP1;ratioP1;P1;durP2;ratioP2;P2;SDS_P1;SDS_P2;PMS_P1;PMS_P2;Temp;Humidity;BMP_temperature;BMP_pressure;BME280_temperature;BME280_humidity;BME280_pressure;Samples;Min_cycle;Max_cycle;Signal;HPM_P1;HPM_P2
2022/10/26 00:00:46;;;;;;;5.63;4.47;;;;;;;;;;5055872;28;20045;-76
2022/10/26 00:03:13;;;;;;;7.05;4.45;;;;;;;;;;5246593;22;20039;-77
2022/10/26 00:05:41;;;;;;;5.22;4.72;;;;;;;;;;5046905;28;20108;-78
2022/10/26 00:08:08;;;;;;;9.23;3.65;;;;;;;;;;5050701;28;20052;-77
2022/10/26 00:10:37;;;;;;;22.17;3.80;;;;;;;;;;5045939;28;20052;-77
2022/10/26 00:13:07;;;;;;;19.50;5.65;;;;;;;;;;5034450;28;20045;-77
2022/10/26 00:15:35;;;;;;;8.63;4.85;;;;;;;;;;5027501;28;20037;-78
2022/10/26 00:18:02;;;;;;;24.17;4.53;;;;;;;;;;5047907;28;20053;-77
2022/10/26 00:20:31;;;;;;;27.23;5.20;;;;;;;;;;5046054;28;20047;-77
2022/10/26 00:22:59;;;;;;;12.63;5.22;;;;;;;;;;5067393;28;20120;-77
2022/10/26 00:25:26;;;;;;;21.02;4.53;;;;;;;;;;5042273;28;20036;-77
2022/10/26 00:27:54;;;;;;;70.07;5.70;;;;;;;;;;5028486;28;20052;-77
2022/10/26 00:30:22;;;;;;;38.25;3.67;;;;;;;;;;5162815;23;20101;-82
2022/10/26 00:32:49;;;;;;;4.85;4.45;;;;;;;;;;5033886;28;20052;-82
2022/10/26 00:35:16;;;;;;;10.18;5.30;;;;;;;;;;5033262;28;20045;-82
2022/10/26 00:37:56;;;;;;;9.05;3.00;;;;;;;;;;5052189;28;20114;-82
2022/10/26 00:40:27;;;;;;;28.23;3.60;;;;;;;;;;5055526;28;20592;-82
2022/10/26 00:42:54;;;;;;;31.65;3.53;;;;;;;;;;5054915;28;20041;-81
2022/10/26 00:45:26;;;;;;;14.70;3.90;;;;;;;;;;5054984;28;20072;-81
2022/10/26 00:47:53;;;;;;;;;;;;;;;;;;5054608;28;20041;-82
2022/10/26 00:50:30;;;;;;;12.65;3.50;;;;;;;;;;5034272;28;19978;-81
2022/10/26 00:52:59;;;;;;;13.43;3.40;;;;;;;;;;5031290;28;20049;-82
2022/10/26 00:55:28;;;;;;;21.15;3.28;;;;;;;;;;5036316;28;20533;-84
2022/10/26 00:57:56;;;;;;;36.53;3.40;;;;;;;;;;5029433;28;20041;-83
2022/10/26 01:00:23;;;;;;;6.93;3.03;;;;;;;;;;5008444;28;20816;-83
2022/10/26 01:02:52;;;;;;;12.77;3.20;;;;;;;;;;5015642;28;20445;-82
2022/10/26 01:05:19;;;;;;;6.45;2.70;;;;;;;;;;5049666;28;20135;-82
2022/10/26 01:07:47;;;;;;;10.15;3.30;;;;;;;;;;5026741;28;20542;-82
2022/10/26 01:10:17;;;;;;;8.50;3.60;;;;;;;;;;5036624;28;20052;-82
2022/10/26 01:12:45;;;;;;;7.85;3.40;;;;;;;;;;5052559;28;20110;-82
2022/10/26 01:15:12;;;;;;;3.83;2.83;;;;;;;;;;5054592;28;20071;-83
2022/10/26 01:17:51;;;;;;;8.25;3.25;;;;;;;;;;5053637;28;20529;-82
2022/10/26 01:20:32;;;;;;;5.32;3.00;;;;;;;;;;5051131;28;20142;-80
2022/10/26 01:23:22;;;;;;;3.00;2.80;;;;;;;;;;5038475;28;20045;-82
2022/10/26 01:26:13;;;;;;;6.45;2.85;;;;;;;;;;5024284;28;20087;-83
2022/10/26 01:29:09;;;;;;;3.95;3.10;;;;;;;;;;5031920;28;20040;-82
2022/10/26 01:31:52;;;;;;;5.38;2.47;;;;;;;;;;5027672;28;20033;-81
2022/10/26 01:34:33;;;;;;;4.40;2.53;;;;;;;;;;5048030;28;20126;-81
2022/10/26 01:37:06;;;;;;;3.25;3.00;;;;;;;;;;5029972;28;20037;-80
2022/10/26 01:39:42;;;;;;;3.10;2.90;;;;;;;;;;5047147;28;20045;-82
2022/10/26 01:42:10;;;;;;;3.20;3.00;;;;;;;;;;5047244;28;20089;-82
2022/10/26 01:44:45;;;;;;;3.22;2.92;;;;;;;;;;5029882;28;20076;-82
2022/10/26 01:47:16;;;;;;;3.30;3.00;;;;;;;;;;5026918;28;20036;-82
2022/10/26 01:49:48;;;;;;;3.38;3.10;;;;;;;;;;5045284;28;20038;-84
2022/10/26 01:52:18;;;;;;;3.05;2.75;;;;;;;;;;5046247;28;20071;-82
2022/10/26 01:54:45;;;;;;;3.33;3.13;;;;;;;;;;5043653;28;20048;-81
2022/10/26 01:57:14;;;;;;;6.32;3.20;;;;;;;;;;5022238;28;20550;-82
2022/10/26 01:59:52;;;;;;;17.80;3.50;;;;;;;;;;5023402;28;20048;-82
2022/10/26 02:02:20;;;;;;;19.70;3.58;;;;;;;;;;5001591;28;20111;-81
2022/10/26 02:05:06;;;;;;;10.80;3.50;;;;;;;;;;5044420;28;20067;-82
2022/10/26 02:07:37;;;;;;;25.17;3.40;;;;;;;;;;5007204;28;20041;-81
2022/10/26 02:10:24;;;;;;;20.33;3.20;;;;;;;;;;5023149;28;20048;-81
2022/10/26 02:13:06;;;;;;;8.82;2.83;;;;;;;;;;5036340;28;20042;-82
2022/10/26 02:15:37;;;;;;;8.52;2.92;;;;;;;;;;5024265;28;20045;-81
2022/10/26 02:18:19;;;;;;;3.50;3.13;;;;;;;;;;5035720;28;20051;-82
2022/10/26 02:20:46;;;;;;;;;;;;;;;;;;5022346;28;20048;-82
2022/10/26 02:23:14;;;;;;;2.88;2.58;;;;;;;;;;5027652;28;19960;-82
2022/10/26 02:25:45;;;;;;;4.53;2.83;;;;;;;;;;5030371;28;20581;-83
2022/10/26 02:28:14;;;;;;;2.67;2.47;;;;;;;;;;5010358;28;20091;-82
2022/10/26 02:30:43;;;;;;;8.40;2.90;;;;;;;;;;5028519;28;20075;-81
2022/10/26 02:33:12;;;;;;;3.50;3.20;;;;;;;;;;5014648;28;20056;-82
2022/10/26 02:35:40;;;;;;;5.95;3.50;;;;;;;;;;5043809;28;20110;-82
2022/10/26 02:38:09;;;;;;;6.72;3.22;;;;;;;;;;5044222;28;20056;-82
2022/10/26 02:40:37;;;;;;;3.75;3.45;;;;;;;;;;5030615;28;20076;-81
2022/10/26 02:43:10;;;;;;;3.80;3.17;;;;;;;;;;5046405;28;20056;-81
2022/10/26 02:45:40;;;;;;;3.15;2.95;;;;;;;;;;5040821;28;20065;-82
2022/10/26 02:48:08;;;;;;;3.78;3.35;;;;;;;;;;5029931;28;20044;-82
2022/10/26 02:50:44;;;;;;;4.22;3.50;;;;;;;;;;5043528;28;20481;-82
2022/10/26 02:53:11;;;;;;;4.30;3.38;;;;;;;;;;5045294;28;20040;-82
2022/10/26 02:55:42;;;;;;;6.30;3.50;;;;;;;;;;5046544;28;20506;-82
2022/10/26 02:58:13;;;;;;;13.45;4.30;;;;;;;;;;5042025;28;20095;-82
2022/10/26 03:00:42;;;;;;;13.88;4.10;;;;;;;;;;5044935;28;20041;-82
2022/10/26 03:03:09;;;;;;;7.68;3.97;;;;;;;;;;5028444;28;20522;-82
2022/10/26 03:05:41;;;;;;;7.72;3.95;;;;;;;;;;5036803;28;20049;-82
2022/10/26 03:08:08;;;;;;;3.70;3.40;;;;;;;;;;5028251;28;20037;-82
2022/10/26 03:10:43;;;;;;;11.80;3.70;;;;;;;;;;5045206;28;20047;-82
2022/10/26 03:13:12;;;;;;;3.88;3.58;;;;;;;;;;5010272;28;20131;-82
2022/10/26 03:15:40;;;;;;;7.20;3.80;;;;;;;;;;5046080;28;20036;-82
2022/10/26 03:18:07;;;;;;;12.15;5.80;;;;;;;;;;5027244;28;20040;-83
2022/10/26 03:20:34;;;;;;;10.55;4.43;;;;;;;;;;5047985;28;20104;-81
2022/10/26 03:23:02;;;;;;;12.40;4.22;;;;;;;;;;5028516;28;20161;-82
2022/10/26 03:25:29;;;;;;;7.10;3.85;;;;;;;;;;5045398;28;20043;-82
2022/10/26 03:27:57;;;;;;;4.28;3.78;;;;;;;;;;5014617;28;20106;-82
2022/10/26 03:30:25;;;;;;;4.18;3.78;;;;;;;;;;5025391;28;20038;-82
2022/10/26 03:32:52;;;;;;;3.88;3.58;;;;;;;;;;5014097;28;20102;-81
2022/10/26 03:35:19;;;;;;;4.78;3.50;;;;;;;;;;5045960;28;20160;-82
2022/10/26 03:37:46;;;;;;;3.47;3.13;;;;;;;;;;5023235;28;20502;-81
2022/10/26 03:40:14;;;;;;;3.65;3.20;;;;;;;;;;5026660;28;20045;-82
2022/10/26 03:42:41;;;;;;;3.35;3.15;;;;;;;;;;5050330;28;20080;-82
2022/10/26 03:45:09;;;;;;;3.35;3.15;;;;;;;;;;5049845;28;20067;-83
2022/10/26 03:47:43;;;;;;;6.00;3.50;;;;;;;;;;5050095;28;20741;-82
2022/10/26 03:50:11;;;;;;;3.40;3.10;;;;;;;;;;5038426;28;20094;-83
2022/10/26 03:52:39;;;;;;;6.20;3.80;;;;;;;;;;5049810;28;20087;-82
2022/10/26 03:55:06;;;;;;;3.65;3.25;;;;;;;;;;5047957;28;20044;-82
2022/10/26 03:57:34;;;;;;;3.65;3.38;;;;;;;;;;5041244;28;20128;-81
2022/10/26 04:00:02;;;;;;;3.92;3.53;;;;;;;;;;5011856;28;20052;-82
2022/10/26 04:02:37;;;;;;;4.32;3.97;;;;;;;;;;5027609;28;20506;-81
2022/10/26 04:05:05;;;;;;;3.78;3.47;;;;;;;;;;5051169;28;20067;-81
2022/10/26 04:07:32;;;;;;;4.07;3.78;;;;;;;;;;5014764;28;20048;-82
2022/10/26 04:09:59;;;;;;;7.70;4.50;;;;;;;;;;5032274;28;20494;-82
2022/10/26 04:12:27;;;;;;;7.03;4.60;;;;;;;;;;5036064;28;20117;-82
2022/10/26 04:14:56;;;;;;;7.88;4.43;;;;;;;;;;5017654;28;20124;-82
2022/10/26 04:17:24;;;;;;;5.97;5.28;;;;;;;;;;5031118;28;20099;-81
2022/10/26 04:19:51;;;;;;;5.43;4.88;;;;;;;;;;5041873;28;20144;-81
2022/10/26 04:22:18;;;;;;;9.35;5.47;;;;;;;;;;5038437;28;20037;-83
2022/10/26 04:24:46;;;;;;;6.78;4.78;;;;;;;;;;5023692;28;20196;-82
2022/10/26 04:27:13;;;;;;;4.63;4.22;;;;;;;;;;5048632;28;20685;-82
2022/10/26 04:29:40;;;;;;;8.88;5.25;;;;;;;;;;5049233;28;20071;-81
2022/10/26 04:32:07;;;;;;;6.75;4.93;;;;;;;;;;5012901;28;20048;-82
2022/10/26 04:34:35;;;;;;;5.47;4.90;;;;;;;;;;5042401;28;20067;-82
2022/10/26 04:37:02;;;;;;;5.35;4.88;;;;;;;;;;5008872;28;20047;-82
2022/10/26 04:39:29;;;;;;;4.43;4.13;;;;;;;;;;5025545;28;20148;-82
2022/10/26 04:41:57;;;;;;;4.70;4.30;;;;;;;;;;5042988;28;20041;-82
2022/10/26 04:44:24;;;;;;;5.22;4.55;;;;;;;;;;5026183;28;20049;-82
2022/10/26 04:46:51;;;;;;;5.55;5.13;;;;;;;;;;5018510;28;20069;-82
2022/10/26 04:49:19;;;;;;;7.05;5.00;;;;;;;;;;5048104;28;20041;-82
2022/10/26 04:51:46;;;;;;;8.32;5.75;;;;;;;;;;5027271;28;20037;-82
2022/10/26 04:54:13;;;;;;;5.47;4.93;;;;;;;;;;5027972;28;20128;-82
2022/10/26 04:56:41;;;;;;;6.13;5.38;;;;;;;;;;5029424;28;20039;-83
2022/10/26 04:59:08;;;;;;;6.18;5.10;;;;;;;;;;5039465;28;20051;-82
2022/10/26 05:01:35;;;;;;;5.53;5.03;;;;;;;;;;5027956;28;20052;-83
2022/10/26 05:04:03;;;;;;;5.97;4.90;;;;;;;;;;5028230;28;20079;-82
2022/10/26 05:06:30;;;;;;;7.00;4.95;;;;;;;;;;5022991;28;20421;-82
2022/10/26 05:08:57;;;;;;;7.60;5.40;;;;;;;;;;5021939;28;20553;-82
2022/10/26 05:11:25;;;;;;;6.35;5.13;;;;;;;;;;5023680;28;20091;-82
2022/10/26 05:13:52;;;;;;;5.20;4.80;;;;;;;;;;5030727;28;20075;-82
2022/10/26 05:16:20;;;;;;;5.45;4.93;;;;;;;;;;5026574;28;20041;-82
2022/10/26 05:18:50;;;;;;;8.18;5.38;;;;;;;;;;5013281;28;20495;-82
2022/10/26 05:21:18;;;;;;;5.25;4.80;;;;;;;;;;5024429;28;20088;-82
2022/10/26 05:23:51;;;;;;;6.05;4.95;;;;;;;;;;5044493;28;20132;-82
2022/10/26 05:26:18;;;;;;;5.32;4.82;;;;;;;;;;5025392;28;20076;-83
2022/10/26 05:28:46;;;;;;;5.05;4.60;;;;;;;;;;5016429;28;20063;-83
2022/10/26 05:31:13;;;;;;;5.60;5.00;;;;;;;;;;5024419;28;20528;-82
2022/10/26 05:33:40;;;;;;;9.15;5.00;;;;;;;;;;5042755;28;20044;-82
2022/10/26 05:36:07;;;;;;;5.60;5.10;;;;;;;;;;5013888;28;20518;-83
2022/10/26 05:38:35;;;;;;;5.70;4.90;;;;;;;;;;5007228;28;20498;-82
2022/10/26 05:41:02;;;;;;;6.63;5.88;;;;;;;;;;5029392;28;20045;-82
2022/10/26 05:43:29;;;;;;;5.85;4.93;;;;;;;;;;5025937;28;20409;-83
2022/10/26 05:45:57;;;;;;;5.38;4.88;;;;;;;;;;5047306;28;20034;-82
2022/10/26 05:48:24;;;;;;;5.60;5.00;;;;;;;;;;5043507;28;20057;-81
2022/10/26 05:50:51;;;;;;;6.03;5.40;;;;;;;;;;5055241;28;20029;-84
2022/10/26 05:53:18;;;;;;;5.55;4.70;;;;;;;;;;5039076;28;20055;-82
2022/10/26 05:55:46;;;;;;;5.60;5.07;;;;;;;;;;5062265;28;20036;-85
2022/10/26 05:58:14;;;;;;;6.45;4.32;;;;;;;;;;5027043;28;20059;-85
2022/10/26 06:01:06;;;;;;;5.10;4.68;;;;;;;;;;5012313;28;20052;-84
2022/10/26 06:03:39;;;;;;;5.30;4.47;;;;;;;;;;4968442;28;20037;-85
2022/10/26 06:06:07;;;;;;;4.88;4.57;;;;;;;;;;5044948;28;20273;-85
2022/10/26 06:08:36;;;;;;;4.88;4.40;;;;;;;;;;5006113;28;20116;-85
2022/10/26 06:11:34;;;;;;;4.53;4.13;;;;;;;;;;5027099;28;20771;-86
2022/10/26 06:14:42;;;;;;;5.80;5.30;;;;;;;;;;5033685;28;20033;-85
2022/10/26 06:17:27;;;;;;;5.97;4.60;;;;;;;;;;5002086;28;20045;-84
2022/10/26 06:19:54;;;;;;;7.53;4.93;;;;;;;;;;5031252;28;20045;-85
2022/10/26 06:22:28;;;;;;;4.38;4.05;;;;;;;;;;5028744;28;20414;-87
2022/10/26 06:25:11;;;;;;;5.25;4.75;;;;;;;;;;5013194;28;20053;-86
2022/10/26 06:27:59;;;;;;;5.30;4.80;;;;;;;;;;5024689;28;20049;-86
2022/10/26 06:30:27;;;;;;;5.82;5.22;;;;;;;;;;5026052;28;20045;-86
2022/10/26 06:33:03;;;;;;;7.43;5.40;;;;;;;;;;5039277;28;20033;-86
2022/10/26 06:36:22;;;;;;;7.63;6.05;;;;;;;;;;5031265;28;20537;-85
2022/10/26 06:38:54;;;;;;;6.65;5.95;;;;;;;;;;5005256;28;20560;-86
2022/10/26 06:41:22;;;;;;;10.15;5.57;;;;;;;;;;5017742;28;20052;-85
2022/10/26 06:43:49;;;;;;;6.90;6.15;;;;;;;;;;5041700;28;20039;-85
2022/10/26 06:46:17;;;;;;;9.00;6.03;;;;;;;;;;5020346;28;20211;-85
2022/10/26 06:48:49;;;;;;;6.57;5.97;;;;;;;;;;5039849;28;20494;-86
2022/10/26 06:51:19;;;;;;;9.07;6.07;;;;;;;;;;4990189;28;20524;-86
2022/10/26 06:53:52;;;;;;;6.22;5.72;;;;;;;;;;5043875;28;20037;-85
2022/10/26 06:56:20;;;;;;;6.85;6.25;;;;;;;;;;5041706;28;20476;-85
2022/10/26 06:58:48;;;;;;;6.78;5.57;;;;;;;;;;5025153;28;20406;-84
2022/10/26 07:01:16;;;;;;;5.32;4.90;;;;;;;;;;5031290;28;20158;-84
2022/10/26 07:03:46;;;;;;;5.53;5.03;;;;;;;;;;5034616;28;20101;-85
2022/10/26 07:06:13;;;;;;;6.55;5.07;;;;;;;;;;5041683;28;20510;-85
2022/10/26 07:08:40;;;;;;;5.30;4.80;;;;;;;;;;5028700;28;20123;-85
2022/10/26 07:11:08;;;;;;;5.63;5.13;;;;;;;;;;5040309;28;20796;-85
2022/10/26 07:13:35;;;;;;;6.68;5.45;;;;;;;;;;5020393;28;20091;-85
2022/10/26 07:19:01;;;;;;;7.95;4.43;;;;;;;;;;5012042;28;20049;-83
2022/10/26 07:21:28;;;;;;;5.97;4.60;;;;;;;;;;5040315;28;20041;-84
2022/10/26 07:23:55;;;;;;;5.63;5.00;;;;;;;;;;5022985;28;20087;-83
2022/10/26 07:26:24;;;;;;;6.70;5.00;;;;;;;;;;5017755;28;20111;-84
2022/10/26 07:28:51;;;;;;;6.15;4.40;;;;;;;;;;5031879;28;20037;-85
2022/10/26 07:31:19;;;;;;;4.47;3.75;;;;;;;;;;5047748;28;20052;-84
2022/10/26 07:33:50;;;;;;;5.38;4.40;;;;;;;;;;5048809;28;20041;-84
2022/10/26 07:36:17;;;;;;;5.10;4.70;;;;;;;;;;5013887;28;20080;-83
2022/10/26 07:38:44;;;;;;;5.20;4.72;;;;;;;;;;5047308;28;20033;-84
2022/10/26 07:41:13;;;;;;;9.40;4.93;;;;;;;;;;5024363;28;21885;-83
2022/10/26 07:43:40;;;;;;;5.25;4.68;;;;;;;;;;5034480;28;20064;-82
2022/10/26 07:46:08;;;;;;;4.95;4.55;;;;;;;;;;5040567;28;20091;-84
2022/10/26 07:48:38;;;;;;;5.45;4.90;;;;;;;;;;5004745;28;20140;-84
2022/10/26 07:51:37;;;;;;;8.05;4.55;;;;;;;;;;5029247;28;20045;-84
2022/10/26 07:54:48;;;;;;;6.00;5.10;;;;;;;;;;5023486;28;20053;-84
2022/10/26 07:57:37;;;;;;;6.70;5.05;;;;;;;;;;5016992;28;20110;-84
2022/10/26 08:00:20;;;;;;;5.82;5.32;;;;;;;;;;5033856;28;20593;-84
2022/10/26 08:03:05;;;;;;;5.25;4.82;;;;;;;;;;5005500;28;20454;-83
2022/10/26 08:05:54;;;;;;;5.60;5.10;;;;;;;;;;5033771;28;20120;-84
2022/10/26 08:08:25;;;;;;;5.45;4.95;;;;;;;;;;4995099;28;20050;-84
2022/10/26 08:11:02;;;;;;;4.63;4.18;;;;;;;;;;4998146;28;20780;-84
2022/10/26 08:13:31;;;;;;;5.80;5.20;;;;;;;;;;5019612;28;20044;-84
2022/10/26 08:16:05;;;;;;;6.50;5.57;;;;;;;;;;5038237;28;20098;-83
2022/10/26 08:18:32;;;;;;;6.25;5.32;;;;;;;;;;5020281;28;20107;-83
2022/10/26 08:21:08;;;;;;;8.50;6.50;;;;;;;;;;5003892;28;20119;-84
2022/10/26 08:23:59;;;;;;;8.52;6.47;;;;;;;;;;5039599;28;20049;-83
2022/10/26 08:26:37;;;;;;;8.43;5.75;;;;;;;;;;5016062;28;20057;-83
2022/10/26 08:29:05;;;;;;;7.70;6.03;;;;;;;;;;5041779;28;20095;-83
2022/10/26 08:36:04;;;;;;;6.15;5.55;;;;;;;;;;5038084;28;20620;-84
2022/10/26 08:38:47;;;;;;;8.40;6.40;;;;;;;;;;5012920;28;20056;-84
2022/10/26 08:41:42;;;;;;;10.55;6.03;;;;;;;;;;5038339;28;20040;-82
2022/10/26 08:44:28;;;;;;;9.10;5.78;;;;;;;;;;5034814;28;20053;-84
2022/10/26 08:47:03;;;;;;;6.93;6.03;;;;;;;;;;5053028;28;20084;-83
2022/10/26 08:49:40;;;;;;;6.50;5.90;;;;;;;;;;5023689;28;20045;-83
2022/10/26 08:52:14;;;;;;;10.50;6.35;;;;;;;;;;5056932;28;20459;-83
2022/10/26 08:54:46;;;;;;;10.65;5.90;;;;;;;;;;5055761;28;20108;-83
2022/10/26 08:57:16;;;;;;;6.70;5.30;;;;;;;;;;5016158;28;20072;-83
2022/10/26 08:59:53;;;;;;;6.00;5.32;;;;;;;;;;5006500;28;20056;-83
2022/10/26 09:02:24;;;;;;;6.82;4.93;;;;;;;;;;5013200;28;20057;-83
2022/10/26 09:04:53;;;;;;;7.07;5.10;;;;;;;;;;5015745;28;20049;-83
2022/10/26 09:07:27;;;;;;;5.68;4.65;;;;;;;;;;5039447;28;20051;-83
2022/10/26 09:10:03;;;;;;;9.77;5.68;;;;;;;;;;5036081;28;20046;-83
2022/10/26 09:12:44;;;;;;;8.52;5.40;;;;;;;;;;5060442;28;20047;-84
2022/10/26 09:15:28;;;;;;;9.65;6.18;;;;;;;;;;5045499;28;20037;-84
2022/10/26 09:18:21;;;;;;;6.55;5.95;;;;;;;;;;5024222;28;20053;-83
2022/10/26 09:21:23;;;;;;;6.88;5.03;;;;;;;;;;5005029;28;20068;-86
2022/10/26 09:24:10;;;;;;;7.35;4.88;;;;;;;;;;5000473;28;20139;-83
2022/10/26 09:26:57;;;;;;;9.13;5.22;;;;;;;;;;5049958;28;20121;-85
2022/10/26 09:29:27;;;;;;;6.50;5.13;;;;;;;;;;5073041;28;20052;-85
2022/10/26 09:32:01;;;;;;;6.95;5.00;;;;;;;;;;5025881;28;20069;-85
2022/10/26 09:34:42;;;;;;;5.13;4.43;;;;;;;;;;5042931;28;20406;-85
2022/10/26 09:37:16;;;;;;;6.38;5.55;;;;;;;;;;5024390;28;20114;-85
2022/10/26 09:39:52;;;;;;;4.90;4.50;;;;;;;;;;5043281;28;20089;-85
2022/10/26 09:42:52;;;;;;;5.50;4.73;;;;;;;;;;5039303;28;20072;-86
2022/10/26 09:45:23;;;;;;;9.50;5.67;;;;;;;;;;5033765;28;20044;-86
2022/10/26 09:47:56;;;;;;;10.35;5.03;;;;;;;;;;5052173;28;20033;-85
2022/10/26 09:50:30;;;;;;;5.40;4.90;;;;;;;;;;5041946;28;20055;-87
2022/10/26 09:52:57;;;;;;;6.32;5.05;;;;;;;;;;5036661;28;20061;-86
2022/10/26 09:55:26;;;;;;;6.97;4.68;;;;;;;;;;5032541;28;20053;-86
2022/10/26 09:57:55;;;;;;;5.07;4.60;;;;;;;;;;5015603;28;20048;-86
2022/10/26 10:00:24;;;;;;;10.80;4.53;;;;;;;;;;5032843;28;20123;-86
2022/10/26 10:02:56;;;;;;;5.25;4.75;;;;;;;;;;5035970;28;20056;-87
2022/10/26 10:05:34;;;;;;;7.22;5.57;;;;;;;;;;5011165;28;20049;-88
2022/10/26 10:09:00;;;;;;;8.55;6.07;;;;;;;;;;5030560;28;20116;-90
2022/10/26 10:12:40;;;;;;;5.30;4.80;;;;;;;;;;5017924;28;20068;-90
2022/10/26 10:24:28;;;;;;;5.90;5.07;;;;;;;;;;5067160;22;20075;-76
2022/10/26 10:26:57;;;;;;;7.32;5.60;;;;;;;;;;5062178;28;20036;-76
2022/10/26 10:29:25;;;;;;;6.07;4.90;;;;;;;;;;5076605;28;20053;-76
2022/10/26 10:31:56;;;;;;;5.18;4.78;;;;;;;;;;5055842;28;20037;-77
2022/10/26 10:34:24;;;;;;;9.43;6.13;;;;;;;;;;5059947;28;20048;-76
2022/10/26 10:36:52;;;;;;;7.82;5.55;;;;;;;;;;5047451;28;20056;-77
2022/10/26 10:39:28;;;;;;;5.88;4.75;;;;;;;;;;5062163;28;20412;-76
2022/10/26 10:41:56;;;;;;;5.40;4.90;;;;;;;;;;5069405;28;20049;-76
2022/10/26 10:44:29;;;;;;;7.80;4.70;;;;;;;;;;5068322;28;20060;-76
2022/10/26 10:47:00;;;;;;;8.15;4.80;;;;;;;;;;5064236;28;20068;-77
2022/10/26 10:49:28;;;;;;;5.30;4.80;;;;;;;;;;5049616;28;20041;-76
2022/10/26 10:51:56;;;;;;;6.60;4.15;;;;;;;;;;5055085;28;20485;-77
2022/10/26 10:54:31;;;;;;;5.20;4.25;;;;;;;;;;5069519;28;20041;-77
2022/10/26 10:57:02;;;;;;;11.18;6.32;;;;;;;;;;5067853;28;20455;-76
2022/10/26 10:59:38;;;;;;;15.63;8.98;;;;;;;;;;5066854;28;20076;-76
2022/10/26 11:02:05;;;;;;;16.02;8.20;;;;;;;;;;5061750;28;20051;-77
2022/10/26 11:04:36;;;;;;;8.73;5.55;;;;;;;;;;5064514;28;20117;-76
2022/10/26 11:07:05;;;;;;;16.10;8.05;;;;;;;;;;5069130;28;20037;-76
2022/10/26 11:09:35;;;;;;;13.02;8.70;;;;;;;;;;5049980;28;20044;-77
2022/10/26 11:12:13;;;;;;;11.10;6.93;;;;;;;;;;5065108;28;20044;-76
2022/10/26 11:14:42;;;;;;;5.55;4.38;;;;;;;;;;5064084;28;20477;-77
2022/10/26 11:17:21;;;;;;;6.00;4.90;;;;;;;;;;5062917;28;20214;-76
2022/10/26 11:19:59;;;;;;;8.82;4.10;;;;;;;;;;5064859;28;20033;-77
2022/10/26 11:22:57;;;;;;;3.88;3.35;;;;;;;;;;5047708;28;20049;-75
2022/10/26 11:26:09;;;;;;;3.40;3.10;;;;;;;;;;5050859;28;20385;-78
2022/10/26 11:28:49;;;;;;;3.83;3.13;;;;;;;;;;5002342;28;20591;-76
2022/10/26 11:31:22;;;;;;;4.18;3.17;;;;;;;;;;5062636;28;20042;-77
2022/10/26 11:34:08;;;;;;;7.82;3.45;;;;;;;;;;5068139;28;20044;-75
2022/10/26 11:36:38;;;;;;;3.78;3.47;;;;;;;;;;5063689;28;20678;-76
2022/10/26 11:39:20;;;;;;;3.65;3.33;;;;;;;;;;5066556;28;20382;-76
2022/10/26 11:42:09;;;;;;;5.85;3.97;;;;;;;;;;5064460;28;20631;-76
2022/10/26 11:44:51;;;;;;;;;;;;;;;;;;5030709;28;20135;-76
2022/10/26 11:47:40;;;;;;;7.70;3.60;;;;;;;;;;5048933;28;19931;-76
2022/10/26 11:50:29;;;;;;;7.43;3.58;;;;;;;;;;5067764;28;20052;-76
2022/10/26 11:53:15;;;;;;;8.32;3.65;;;;;;;;;;5068280;28;20299;-77
2022/10/26 11:55:58;;;;;;;5.22;3.22;;;;;;;;;;5047711;28;20048;-76
2022/10/26 11:58:28;;;;;;;4.65;3.30;;;;;;;;;;5055028;28;20048;-77
2022/10/26 12:00:57;;;;;;;6.95;4.75;;;;;;;;;;5059423;28;20106;-76
2022/10/26 12:03:31;;;;;;;5.75;4.22;;;;;;;;;;5061178;28;20394;-77
2022/10/26 12:06:06;;;;;;;5.72;4.03;;;;;;;;;;5061378;28;20424;-77
2022/10/26 12:08:41;;;;;;;5.50;3.70;;;;;;;;;;5065901;28;20076;-77
2022/10/26 12:11:17;;;;;;;4.57;3.65;;;;;;;;;;5065384;28;20044;-76
2022/10/26 12:13:50;;;;;;;8.45;3.75;;;;;;;;;;5066189;28;20064;-76
2022/10/26 12:16:25;;;;;;;6.30;3.60;;;;;;;;;;5063333;28;20056;-76
2022/10/26 12:18:58;;;;;;;4.15;3.65;;;;;;;;;;5062214;28;20044;-75
2022/10/26 12:21:28;;;;;;;6.63;5.95;;;;;;;;;;5067581;28;20040;-77
2022/10/26 12:23:59;;;;;;;8.55;4.15;;;;;;;;;;5069311;28;20064;-76
2022/10/26 12:26:27;;;;;;;4.97;3.80;;;;;;;;;;5058249;28;20036;-76
2022/10/26 12:29:01;;;;;;;3.58;3.28;;;;;;;;;;5058931;28;20080;-76
2022/10/26 12:31:32;;;;;;;4.45;3.00;;;;;;;;;;5055422;28;20041;-76
2022/10/26 12:34:00;;;;;;;5.85;3.40;;;;;;;;;;5064410;28;20045;-78
2022/10/26 12:36:47;;;;;;;4.88;3.30;;;;;;;;;;5058479;28;20580;-77
2022/10/26 12:39:33;;;;;;;4.55;3.22;;;;;;;;;;5062058;28;20132;-77
2022/10/26 12:42:06;;;;;;;4.13;3.60;;;;;;;;;;5063562;28;20056;-78
2022/10/26 12:44:59;;;;;;;4.63;2.88;;;;;;;;;;5064358;28;20045;-77
2022/10/26 12:47:29;;;;;;;3.10;2.80;;;;;;;;;;5062317;28;20055;-78
2022/10/26 12:49:59;;;;;;;5.75;3.33;;;;;;;;;;5064886;28;20048;-79
2022/10/26 12:52:41;;;;;;;4.45;3.53;;;;;;;;;;5059616;28;20489;-77
2022/10/26 12:55:08;;;;;;;4.68;3.28;;;;;;;;;;5059620;28;20044;-77
2022/10/26 12:57:44;;;;;;;3.47;3.05;;;;;;;;;;5054203;28;20059;-77
2022/10/26 13:00:22;;;;;;;3.55;3.17;;;;;;;;;;5058236;28;20036;-77
2022/10/26 13:02:56;;;;;;;3.70;3.40;;;;;;;;;;5059735;28;20037;-77
2022/10/26 13:05:23;;;;;;;7.32;3.83;;;;;;;;;;5058303;28;20048;-76
2022/10/26 13:07:51;;;;;;;5.72;3.63;;;;;;;;;;5057138;28;20364;-76
2022/10/26 13:10:21;;;;;;;3.95;3.53;;;;;;;;;;5055704;28;20045;-77
2022/10/26 13:12:59;;;;;;;7.10;4.10;;;;;;;;;;5053326;28;20048;-77
2022/10/26 13:15:32;;;;;;;5.38;4.05;;;;;;;;;;5056251;28;20504;-77
2022/10/26 13:18:00;;;;;;;4.15;3.20;;;;;;;;;;5048908;28;20536;-77
2022/10/26 13:20:29;;;;;;;4.97;3.45;;;;;;;;;;5065337;28;20056;-77
2022/10/26 13:22:57;;;;;;;6.18;4.22;;;;;;;;;;5054563;28;20509;-77
2022/10/26 13:25:26;;;;;;;4.97;3.58;;;;;;;;;;5045767;28;20053;-76
2022/10/26 13:28:04;;;;;;;9.38;3.97;;;;;;;;;;5054412;28;20047;-76
2022/10/26 13:30:42;;;;;;;4.60;4.10;;;;;;;;;;5062370;28;20472;-76
2022/10/26 13:33:33;;;;;;;5.10;3.63;;;;;;;;;;5066533;28;20036;-78
2022/10/26 13:36:02;;;;;;;6.17;3.70;;;;;;;;;;5066340;28;20039;-76
2022/10/26 13:38:31;;;;;;;6.20;3.28;;;;;;;;;;5065919;28;20279;-77
2022/10/26 13:41:15;;;;;;;3.90;3.22;;;;;;;;;;5066775;28;20101;-77
2022/10/26 13:43:43;;;;;;;5.30;3.20;;;;;;;;;;5066024;28;20071;-76
2022/10/26 13:46:22;;;;;;;3.55;2.88;;;;;;;;;;5043806;28;20052;-77
2022/10/26 13:48:49;;;;;;;5.10;3.20;;;;;;;;;;5053062;28;20135;-77
2022/10/26 13:51:24;;;;;;;3.33;2.78;;;;;;;;;;5054886;28;20087;-77
2022/10/26 13:54:14;;;;;;;4.63;3.03;;;;;;;;;;5062862;28;20127;-76
2022/10/26 13:57:01;;;;;;;4.70;3.03;;;;;;;;;;5056979;28;20218;-76
2022/10/26 13:59:30;;;;;;;7.55;4.15;;;;;;;;;;5056561;28;20048;-76
2022/10/26 14:02:12;;;;;;;5.63;3.42;;;;;;;;;;5066178;28;20052;-77
2022/10/26 14:04:39;;;;;;;3.65;3.30;;;;;;;;;;5053187;28;20393;-77
2022/10/26 14:07:22;;;;;;;3.88;3.58;;;;;;;;;;5056085;28;20048;-76
2022/10/26 14:09:57;;;;;;;5.32;3.33;;;;;;;;;;5056433;28;20051;-77
2022/10/26 14:12:27;;;;;;;4.43;2.88;;;;;;;;;;5070736;28;20041;-77
2022/10/26 14:14:59;;;;;;;3.45;3.10;;;;;;;;;;5062878;28;20036;-77
2022/10/26 14:17:27;;;;;;;4.57;2.80;;;;;;;;;;5067477;28;20876;-77
2022/10/26 14:19:54;;;;;;;3.85;2.50;;;;;;;;;;5066036;28;20035;-76
2022/10/26 14:22:26;;;;;;;4.15;2.88;;;;;;;;;;5064400;28;20504;-77
2022/10/26 14:25:00;;;;;;;4.43;3.15;;;;;;;;;;5066698;28;20047;-77
2022/10/26 14:27:27;;;;;;;;;;;;;;;;;;5056300;28;20048;-77
2022/10/26 14:29:55;;;;;;;6.53;4.95;;;;;;;;;;5061214;28;19920;-77
2022/10/26 14:32:42;;;;;;;13.10;4.38;;;;;;;;;;5059712;28;20049;-76
2022/10/26 14:35:13;;;;;;;10.18;4.10;;;;;;;;;;5063309;28;20518;-76
2022/10/26 14:37:43;;;;;;;8.45;4.03;;;;;;;;;;5051706;28;20037;-76
2022/10/26 14:40:16;;;;;;;5.68;4.22;;;;;;;;;;5051077;28;20040;-76
2022/10/26 14:42:48;;;;;;;4.15;3.78;;;;;;;;;;5058631;28;20051;-77
2022/10/26 14:45:19;;;;;;;6.78;4.40;;;;;;;;;;5061498;28;20052;-76
2022/10/26 14:48:07;;;;;;;5.55;4.32;;;;;;;;;;5058482;28;20666;-76
2022/10/26 14:50:35;;;;;;;6.30;4.20;;;;;;;;;;5055993;28;20045;-77
2022/10/26 14:53:11;;;;;;;4.82;4.32;;;;;;;;;;5058843;28;20040;-77
2022/10/26 14:55:51;;;;;;;7.72;4.70;;;;;;;;;;5055508;28;20048;-76
2022/10/26 14:58:26;;;;;;;5.30;3.53;;;;;;;;;;5057793;28;20585;-76
2022/10/26 15:01:12;;;;;;;9.77;4.00;;;;;;;;;;5061398;28;20035;-77
2022/10/26 15:03:40;;;;;;;5.38;4.57;;;;;;;;;;5052581;28;20037;-77
2022/10/26 15:06:26;;;;;;;10.23;6.93;;;;;;;;;;5052144;28;20076;-76
2022/10/26 15:09:05;;;;;;;12.95;6.50;;;;;;;;;;5056369;28;20032;-77
2022/10/26 15:12:01;;;;;;;8.65;7.50;;;;;;;;;;5040549;28;20669;-76
2022/10/26 15:14:35;;;;;;;10.50;8.13;;;;;;;;;;5055827;28;20071;-77
2022/10/26 15:17:10;;;;;;;9.93;7.70;;;;;;;;;;5042878;28;20075;-77
2022/10/26 15:19:43;;;;;;;13.07;7.80;;;;;;;;;;5047384;28;20048;-76
2022/10/26 15:22:21;;;;;;;10.80;8.50;;;;;;;;;;5059778;28;20037;-77
2022/10/26 15:24:54;;;;;;;12.65;7.65;;;;;;;;;;5060172;28;20052;-77
2022/10/26 15:27:22;;;;;;;11.88;5.78;;;;;;;;;;5060813;28;20045;-77
2022/10/26 15:29:50;;;;;;;8.88;6.60;;;;;;;;;;5051456;28;20045;-77
2022/10/26 15:32:26;;;;;;;11.00;6.72;;;;;;;;;;5060753;28;20051;-77
2022/10/26 15:35:16;;;;;;;7.70;6.30;;;;;;;;;;5045650;28;20106;-77
2022/10/26 15:41:04;;;;;;;9.55;5.03;;;;;;;;;;5062108;28;20647;-78